Time,TemperatureF,DewpointF,PressureIn,WindDirection,WindDirectionDegrees,WindSpeedMPH,WindSpeedGustMPH,Humidity,HourlyPrecipIn,Conditions,Clouds,dailyrainin,SoftwareType,DateUTC
2013-09-11 07:22:00,68.0,67.0,30.10,SSW,198,0.0,1.0,96,0.00,,,0.00,,2013-09-11 11:22:00,
2013-09-11 07:52:00,68.0,67.0,30.10,SSW,195,0.0,5.0,96,0.00,,,0.00,,2013-09-11 11:52:00,
2013-09-11 08:21:00,69.0,68.0,30.10,SSW,199,2.0,9.0,96,0.00,,,0.00,,2013-09-11 12:21:00,
2013-09-11 08:52:00,71.0,70.0,30.10,SSW,196,1.0,9.0,96,0.00,,,0.00,,2013-09-11 12:52:00,
2013-09-11 09:22:00,73.0,71.0,30.11,South,186,0.0,10.0,94,0.00,,,0.00,,2013-09-11 13:22:00,
2013-09-11 09:52:00,76.0,72.0,30.11,SSE,148,1.0,10.0,86,0.00,,,0.00,,2013-09-11 13:52:00,
2013-09-11 10:22:00,78.0,73.0,30.11,SSW,194,1.0,5.0,85,0.00,,,0.00,,2013-09-11 14:22:00,
2013-09-11 10:52:00,80.0,74.0,30.10,SSW,198,0.0,7.0,81,0.00,,,0.00,,2013-09-11 14:52:00,
2013-09-11 11:22:00,82.0,74.0,30.09,South,190,1.0,7.0,77,0.00,,,0.00,,2013-09-11 15:22:00,
2013-09-11 11:54:00,84.0,75.0,30.08,WNW,303,0.0,5.0,75,0.00,,,0.00,,2013-09-11 15:54:00,
2013-09-11 12:23:00,86.0,76.0,30.07,NW,321,0.0,7.0,72,0.00,,,0.00,,2013-09-11 16:23:00,
2013-09-11 12:53:00,86.0,75.0,30.06,SSE,154,1.0,5.0,70,0.00,,,0.00,,2013-09-11 16:53:00,
2013-09-11 13:23:00,86.0,76.0,30.06,SSE,157,1.0,6.0,72,0.00,,,0.00,,2013-09-11 17:23:00,
2013-09-11 13:52:00,89.0,76.0,30.04,SSW,192,0.0,5.0,66,0.00,,,0.00,,2013-09-11 17:52:00,
2013-09-11 14:22:00,89.0,76.0,30.04,SSW,198,1.0,6.0,65,0.00,,,0.00,,2013-09-11 18:22:00,
2013-09-11 14:52:00,87.0,76.0,30.03,SSW,203,3.0,10.0,69,0.00,,,0.00,,2013-09-11 18:52:00,
2013-09-11 15:22:00,85.0,75.0,30.03,SSE,160,1.0,9.0,72,0.00,,,0.00,,2013-09-11 19:22:00,
2013-09-11 15:53:00,85.0,75.0,30.03,South,191,2.0,11.0,72,0.00,,,0.00,,2013-09-11 19:53:00,
2013-09-11 16:22:00,83.0,74.0,30.03,SSW,202,3.0,13.0,74,0.00,,,0.00,,2013-09-11 20:22:00,
2013-09-11 16:52:00,82.0,74.0,30.02,SW,218,2.0,13.0,76,0.00,,,0.00,,2013-09-11 20:52:00,
2013-09-11 17:22:00,80.0,72.0,30.02,SSW,194,2.0,14.0,77,0.00,,,0.00,,2013-09-11 21:22:00,
2013-09-11 17:54:00,79.0,72.0,30.02,SSW,206,1.0,9.0,80,0.00,,,0.00,,2013-09-11 21:54:00,
2013-09-11 18:24:00,78.0,71.0,30.01,SSE,162,2.0,11.0,80,0.00,,,0.00,,2013-09-11 22:24:00,
2013-09-11 18:54:00,77.0,71.0,30.00,SSW,211,2.0,10.0,81,0.00,,,0.00,,2013-09-11 22:54:00,
2013-09-11 19:22:00,76.0,70.0,30.01,SSW,202,0.0,9.0,81,0.00,,,0.00,,2013-09-11 23:22:00,
2013-09-11 19:53:00,75.0,70.0,30.03,SSW,192,1.0,12.0,84,0.00,,,0.00,,2013-09-11 23:53:00,
2013-09-11 20:22:00,73.0,69.0,30.04,SSW,195,0.0,12.0,86,0.00,,,0.00,,2013-09-12 00:22:00,
2013-09-11 20:52:00,73.0,69.0,30.04,SSW,200,0.0,7.0,87,0.00,,,0.00,,2013-09-12 00:52:00,
2013-09-11 21:01:00,73.0,69.0,30.04,SSW,200,0.0,7.0,87,0.00,,,0.00,,2013-09-12 01:01:00,
2013-09-11 21:11:00,73.0,69.0,30.04,SSW,200,0.0,7.0,87,0.00,,,0.00,,2013-09-12 01:11:00,